Time;durP1;ratioP1;P1;durP2;ratioP2;P2;SDS_P1;SDS_P2;PMS_P1;PMS_P2;Temp;Humidity;BMP_temperature;BMP_pressure;BME280_temperature;BME280_humidity;BME280_pressure;Samples;Min_cycle;Max_cycle;Signal;HPM_P1;HPM_P2
2021/01/12 00:01:45;;;;;;;134.40;65.90;;;;;;;-3.67;64.33;99015.83;119950;1153;104442;-72
2021/01/12 00:04:13;;;;;;;145.83;67.13;;;;;;;-3.64;63.97;99018.38;120007;1153;104364;-72
2021/01/12 00:06:41;;;;;;;142.00;62.97;;;;;;;-3.62;63.90;99018.34;119944;1153;104377;-72
2021/01/12 00:09:09;;;;;;;131.63;62.90;;;;;;;-3.62;64.77;99013.14;120028;1153;104352;-72
2021/01/12 00:11:38;;;;;;;117.13;59.00;;;;;;;-3.66;64.27;99014.07;120059;1153;104413;-73
2021/01/12 00:14:30;;;;;;;115.50;56.23;;;;;;;-3.67;64.24;99009.78;119924;1153;104382;-73
2021/01/12 00:16:52;;;;;;;103.80;47.77;;;;;;;-3.71;64.24;99008.11;120992;1151;103165;-72
2021/01/12 00:19:20;;;;;;;104.47;50.10;;;;;;;-3.78;64.65;98999.53;119913;1152;104445;-73
2021/01/12 00:21:47;;;;;;;104.23;49.63;;;;;;;-3.79;64.26;98995.21;120991;1153;104323;-73
2021/01/12 00:24:14;;;;;;;111.63;52.20;;;;;;;-3.84;64.57;98994.42;119991;1153;104515;-73
2021/01/12 00:26:41;;;;;;;113.50;52.93;;;;;;;-3.83;64.22;98990.94;120039;1153;104358;-73
2021/01/12 00:29:11;;;;;;;113.03;52.07;;;;;;;-3.87;64.39;98986.70;120109;1152;104384;-73
2021/01/12 00:31:42;;;;;;;117.83;54.27;;;;;;;-3.93;64.03;98987.63;120059;1153;104423;-71
2021/01/12 00:34:13;;;;;;;112.90;52.97;;;;;;;-4.02;64.05;98993.83;120107;1151;104449;-73
2021/01/12 00:36:52;;;;;;;110.33;52.73;;;;;;;-4.10;64.13;98988.76;120122;1153;104469;-69
2021/01/12 00:39:25;;;;;;;110.07;51.53;;;;;;;-4.13;64.52;98977.53;119973;1153;104459;-72
2021/01/12 00:41:55;;;;;;;111.43;52.07;;;;;;;-4.17;64.29;98996.64;119902;1152;104435;-71
2021/01/12 00:44:23;;;;;;;113.13;56.43;;;;;;;-4.22;64.25;98994.11;119969;1152;104460;-73
2021/01/12 00:46:50;;;;;;;113.20;52.53;;;;;;;-4.36;64.49;98996.91;119987;1153;104471;-72
2021/01/12 00:49:22;;;;;;;108.43;48.90;;;;;;;-4.55;63.93;98989.34;121914;1151;102941;-72
2021/01/12 00:51:49;;;;;;;116.33;51.07;;;;;;;-4.69;64.03;98989.52;120924;1151;104370;-71
2021/01/12 00:54:21;;;;;;;90.20;43.07;;;;;;;-4.80;64.11;98981.86;119921;1153;104451;-71
2021/01/12 00:56:49;;;;;;;110.37;49.97;;;;;;;-4.95;64.20;98975.12;119977;1151;104545;-72
2021/01/12 00:59:16;;;;;;;115.95;53.50;;;;;;;-5.00;64.23;98981.21;120042;1151;104905;-72
2021/01/12 01:01:47;;;;;;;101.03;47.70;;;;;;;-5.02;64.36;98977.77;120176;1151;105011;-72
2021/01/12 01:04:16;;;;;;;103.43;48.57;;;;;;;-5.01;64.63;98982.09;120004;1151;104349;-73
2021/01/12 01:06:46;;;;;;;107.73;49.57;;;;;;;-5.01;64.53;98963.92;119973;1151;104443;-71
2021/01/12 01:09:13;;;;;;;103.77;48.77;;;;;;;-4.99;64.88;98965.65;119930;1151;104390;-71
2021/01/12 01:11:46;;;;;;;91.87;43.00;;;;;;;-4.92;64.73;98968.17;119952;1151;104345;-72
2021/01/12 01:14:17;;;;;;;99.30;45.53;;;;;;;-4.90;64.72;98958.64;120554;1151;104496;-72
2021/01/12 01:16:45;;;;;;;79.20;36.80;;;;;;;-4.87;64.56;98951.66;119968;1151;104372;-71
2021/01/12 01:19:12;;;;;;;95.90;44.97;;;;;;;-4.87;64.65;98951.66;121019;1151;104494;-72
2021/01/12 01:21:40;;;;;;;102.70;46.73;;;;;;;-4.86;64.73;98947.32;120088;1151;104845;-72
2021/01/12 01:24:08;;;;;;;111.67;50.57;;;;;;;-4.83;64.78;98947.28;120020;1153;104354;-73
2021/01/12 01:26:36;;;;;;;106.27;51.67;;;;;;;-4.82;64.57;98952.47;121943;1152;103132;-73
2021/01/12 01:29:04;;;;;;;106.57;47.70;;;;;;;-4.77;64.73;98943.78;120022;1153;104375;-73
2021/01/12 01:31:38;;;;;;;108.63;49.53;;;;;;;-4.75;64.83;98950.65;120082;1153;104367;-74
2021/01/12 01:34:06;;;;;;;110.43;52.07;;;;;;;-4.77;64.74;98941.18;120010;1152;104423;-71
2021/01/12 01:36:33;;;;;;;102.63;46.63;;;;;;;-4.82;64.47;98933.44;120029;1153;104455;-73
2021/01/12 01:39:00;;;;;;;108.78;52.65;;;;;;;-4.85;64.87;98938.66;119949;1153;104445;-72
2021/01/12 01:41:32;;;;;;;98.43;46.50;;;;;;;-4.82;64.87;98936.91;119912;1153;104447;-72
2021/01/12 01:44:07;;;;;;;104.00;48.50;;;;;;;-4.81;64.60;98936.03;120103;1151;104401;-71
2021/01/12 01:46:34;;;;;;;107.53;49.97;;;;;;;-4.79;65.06;98923.89;119941;1153;104385;-71
2021/01/12 01:49:04;;;;;;;87.57;41.60;;;;;;;-4.79;64.68;98933.40;119986;1153;104423;-72
2021/01/12 01:51:31;;;;;;;99.57;44.97;;;;;;;-4.86;64.66;98924.84;121541;1153;104278;-72
2021/01/12 01:53:58;;;;;;;94.13;44.70;;;;;;;-4.83;65.04;98918.73;119951;1153;104351;-70
2021/01/12 01:56:26;;;;;;;93.10;45.00;;;;;;;-4.76;65.22;98920.39;120058;1153;104392;-73
2021/01/12 01:58:54;;;;;;;85.47;40.93;;;;;;;-4.72;65.20;98921.22;119986;1153;104401;-69
2021/01/12 02:01:21;;;;;;;94.15;45.17;;;;;;;-4.69;65.28;98919.44;120043;1149;104372;-71
2021/01/12 02:04:06;;;;;;;87.40;43.30;;;;;;;-4.64;65.22;98920.23;120011;1153;104484;-71
2021/01/12 02:06:36;;;;;;;87.93;38.83;;;;;;;-4.64;65.04;98919.36;121926;1152;104374;-73
2021/01/12 02:09:16;;;;;;;79.30;36.40;;;;;;;-4.68;65.03;98908.17;119914;1151;104490;-72
2021/01/12 02:11:49;;;;;;;83.37;38.07;;;;;;;-4.70;65.08;98904.73;121011;1151;104340;-74
2021/01/12 02:14:19;;;;;;;79.97;38.20;;;;;;;-4.67;65.20;98896.04;119902;1154;104454;-71
2021/01/12 02:16:50;;;;;;;73.70;32.67;;;;;;;-4.68;65.28;98892.59;120021;1153;104410;-72
2021/01/12 02:19:20;;;;;;;69.55;33.35;;;;;;;-4.68;65.17;98884.81;119886;1153;104387;-71
2021/01/12 02:21:54;;;;;;;74.43;35.00;;;;;;;-4.64;65.42;98886.49;119922;1153;104407;-71
2021/01/12 02:24:21;;;;;;;66.03;28.83;;;;;;;-4.56;65.32;98888.97;121018;1152;102693;-71
2021/01/12 02:26:48;;;;;;;61.87;30.23;;;;;;;-4.53;65.56;98878.55;120111;1153;104355;-71
2021/01/12 02:29:15;;;;;;;50.23;24.63;;;;;;;-4.51;65.18;98879.38;119957;1153;104391;-71
2021/01/12 02:31:44;;;;;;;59.40;25.77;;;;;;;-4.49;65.16;98882.81;119953;1153;104523;-71
2021/01/12 02:34:18;;;;;;;62.60;27.63;;;;;;;-4.46;65.45;98881.90;121550;1151;101926;-71
2021/01/12 02:36:51;;;;;;;56.40;26.77;;;;;;;-4.39;65.89;98883.53;120096;1151;104458;-71
2021/01/12 02:39:18;;;;;;;;;;;;;;;-4.32;65.61;98881.72;120239;1152;104492;-70
2021/01/12 02:41:45;;;;;;;53.08;24.32;;;;;;;-4.26;65.88;98876.41;119960;1151;104374;-70
2021/01/12 02:44:32;;;;;;;55.70;25.37;;;;;;;-4.19;65.48;98879.78;120363;1153;104375;-72
2021/01/12 02:47:00;;;;;;;52.20;23.90;;;;;;;-4.16;65.67;98884.93;119938;1153;104936;-70
2021/01/12 02:49:31;;;;;;;49.70;24.63;;;;;;;-4.09;65.59;98875.29;120397;1151;104373;-71
2021/01/12 02:51:58;;;;;;;51.93;23.07;;;;;;;-4.01;66.20;98864.77;119978;1153;104445;-70
2021/01/12 02:54:27;;;;;;;50.25;23.47;;;;;;;-3.98;65.80;98865.59;120151;1151;104495;-72
2021/01/12 02:56:54;;;;;;;50.83;24.93;;;;;;;-3.96;66.13;98858.63;120659;1153;102468;-72
2021/01/12 02:59:22;;;;;;;56.10;27.03;;;;;;;-3.90;65.65;98857.65;120336;1153;104361;-72
2021/01/12 03:01:48;;;;;;;57.10;24.93;;;;;;;-3.82;65.61;98860.11;119953;1153;104457;-73
2021/01/12 03:04:15;;;;;;;53.73;25.00;;;;;;;-3.79;65.86;98854.86;119907;1153;104430;-72
2021/01/12 03:06:42;;;;;;;56.15;24.95;;;;;;;-3.74;65.75;98851.31;120948;1151;104722;-74
2021/01/12 03:09:12;;;;;;;52.67;23.33;;;;;;;-3.71;65.70;98855.58;119981;1153;104452;-73
2021/01/12 03:11:39;;;;;;;52.98;24.63;;;;;;;-3.69;65.70;98842.57;119982;1153;104387;-72
2021/01/12 03:14:06;;;;;;;47.20;21.67;;;;;;;-3.69;66.03;98842.57;119958;1152;104455;-74
2021/01/12 03:16:36;;;;;;;46.83;20.43;;;;;;;-3.72;66.02;98835.67;120030;1153;104496;-72
2021/01/12 03:19:06;;;;;;;41.13;19.53;;;;;;;-3.76;66.24;98819.28;119973;1151;104477;-72
2021/01/12 03:21:33;;;;;;;39.80;19.20;;;;;;;-3.78;66.01;98827.98;120078;1152;104464;-70
2021/01/12 03:24:01;;;;;;;41.00;19.60;;;;;;;-3.79;66.32;98824.54;120021;1153;104356;-72
2021/01/12 03:26:28;;;;;;;43.60;18.02;;;;;;;-3.78;66.18;98817.58;119964;1151;104355;-70
2021/01/12 03:28:55;;;;;;;35.80;16.97;;;;;;;-3.80;66.06;98812.42;119957;1153;104352;-70
2021/01/12 03:31:21;;;;;;;38.80;17.20;;;;;;;-3.80;66.08;98812.42;119933;1151;104412;-70
2021/01/12 03:33:49;;;;;;;38.13;18.53;;;;;;;-3.80;65.70;98812.42;119910;1151;104382;-71
2021/01/12 03:36:15;;;;;;;34.20;14.80;;;;;;;-3.79;66.20;98810.67;120148;1151;104454;-70
2021/01/12 03:38:42;;;;;;;36.60;16.70;;;;;;;-3.81;65.74;98797.72;119972;1151;104486;-74
2021/01/12 03:41:09;;;;;;;35.40;15.78;;;;;;;-3.81;66.22;98797.72;119950;1153;104525;-71
2021/01/12 03:43:41;;;;;;;40.33;17.80;;;;;;;-3.80;66.08;98793.36;120042;1153;104387;-71
2021/01/12 03:46:08;;;;;;;36.50;16.20;;;;;;;-3.79;66.42;98784.67;119988;1152;104454;-72
2021/01/12 03:48:38;;;;;;;39.20;17.47;;;;;;;-3.80;66.36;98791.63;120031;1152;104451;-71
2021/01/12 03:51:05;;;;;;;37.00;17.12;;;;;;;-3.81;65.79;98792.52;120151;1153;104490;-73
2021/01/12 03:53:34;;;;;;;38.37;17.53;;;;;;;-3.83;66.35;98785.62;119996;1153;104857;-72
2021/01/12 03:56:04;;;;;;;37.27;18.17;;;;;;;-3.83;66.37;98783.89;120090;1151;104423;-73
2021/01/12 03:58:31;;;;;;;39.77;18.47;;;;;;;-3.83;65.95;98781.30;120084;1151;104447;-72
2021/01/12 04:01:01;;;;;;;37.10;15.60;;;;;;;-3.80;66.08;98785.56;120056;1151;104456;-72
2021/01/12 04:03:31;;;;;;;39.05;17.23;;;;;;;-3.79;65.95;98782.08;120014;1151;104340;-72
2021/01/12 04:06:03;;;;;;;39.03;17.97;;;;;;;-3.77;66.48;98786.38;120288;1153;104432;-72
2021/01/12 04:08:30;;;;;;;37.47;16.60;;;;;;;-3.74;66.26;98788.92;119989;1151;104374;-73
2021/01/12 04:10:57;;;;;;;35.35;17.40;;;;;;;-3.73;66.14;98789.77;119973;1153;104423;-71
2021/01/12 04:13:27;;;;;;;38.17;18.10;;;;;;;-3.71;66.94;98788.00;119957;1153;104528;-70
2021/01/12 04:15:54;;;;;;;35.47;16.67;;;;;;;-3.68;66.37;98782.73;120098;1153;104824;-72
2021/01/12 04:18:21;;;;;;;36.43;15.97;;;;;;;-3.67;66.32;98776.66;120093;1154;104485;-71
2021/01/12 04:20:48;;;;;;;34.23;15.55;;;;;;;-3.69;66.12;98773.22;119947;1151;104790;-72
2021/01/12 04:23:14;;;;;;;38.70;17.55;;;;;;;-3.73;66.51;98771.56;119983;1151;104464;-71
2021/01/12 04:25:42;;;;;;;39.75;17.70;;;;;;;-3.77;66.22;98773.39;120041;1151;104452;-72
2021/01/12 04:28:09;;;;;;;41.23;19.43;;;;;;;-3.79;66.17;98769.08;120047;1151;104365;-69
2021/01/12 04:30:42;;;;;;;40.73;19.50;;;;;;;-3.80;66.67;98769.97;120028;1151;104825;-70
2021/01/12 04:33:09;;;;;;;41.53;18.47;;;;;;;-3.81;66.62;98771.72;119990;1151;104835;-71
2021/01/12 04:35:36;;;;;;;45.93;21.13;;;;;;;-3.82;66.54;98775.21;119987;1151;104526;-72
2021/01/12 04:38:04;;;;;;;39.83;17.20;;;;;;;-3.83;66.68;98775.22;120026;1151;104443;-73
2021/01/12 04:40:33;;;;;;;41.53;18.43;;;;;;;-3.85;66.99;98769.20;120985;1151;101926;-72
2021/01/12 04:43:02;;;;;;;44.20;22.07;;;;;;;-3.85;66.33;98769.20;120046;1153;104490;-73
2021/01/12 04:45:29;;;;;;;48.53;21.90;;;;;;;-3.84;66.35;98763.98;119918;1152;104387;-71
2021/01/12 04:47:57;;;;;;;45.13;20.70;;;;;;;-3.79;66.96;98761.28;120013;1153;104360;-73
2021/01/12 04:50:24;;;;;;;44.03;19.43;;;;;;;-3.70;66.98;98763.72;120024;1153;104458;-71
2021/01/12 04:52:54;;;;;;;50.60;23.03;;;;;;;-3.65;66.97;98756.69;119980;1152;104440;-72
2021/01/12 04:55:24;;;;;;;45.00;21.40;;;;;;;-3.60;66.93;98761.78;120118;1153;104394;-70
2021/01/12 04:57:54;;;;;;;50.43;24.03;;;;;;;-3.56;67.10;98746.99;119927;1152;104438;-72
2021/01/12 05:00:30;;;;;;;48.10;24.60;;;;;;;-3.51;66.72;98742.55;120058;1153;104397;-73
2021/01/12 05:03:00;;;;;;;46.73;22.67;;;;;;;-3.48;67.28;98745.94;120775;1152;104359;-72
2021/01/12 05:05:41;;;;;;;46.47;20.90;;;;;;;-3.44;67.27;98738.91;120131;1154;104429;-73
2021/01/12 05:08:13;;;;;;;46.00;21.10;;;;;;;-3.40;67.38;98730.16;119997;1151;104499;-71
2021/01/12 05:10:40;;;;;;;40.23;18.60;;;;;;;-3.36;66.87;98728.37;119949;1153;104853;-73
2021/01/12 05:13:13;;;;;;;40.07;17.33;;;;;;;-3.33;67.47;98718.74;119969;1152;104764;-72
2021/01/12 05:15:46;;;;;;;33.47;13.30;;;;;;;-3.33;66.67;98710.94;120031;1152;104489;-72
2021/01/12 05:18:17;;;;;;;33.10;12.80;;;;;;;-3.33;66.38;98703.13;120055;1151;104473;-70
2021/01/12 05:20:50;;;;;;;27.00;11.13;;;;;;;-3.31;66.86;98705.72;119989;1152;104380;-71
2021/01/12 05:23:27;;;;;;;29.73;12.30;;;;;;;-3.27;66.51;98699.56;120076;1153;104460;-72
2021/01/12 05:26:04;;;;;;;28.40;11.20;;;;;;;-3.26;66.91;98693.44;120088;1153;104461;-75
2021/01/12 05:28:32;;;;;;;28.63;12.63;;;;;;;-3.22;66.65;98689.04;119950;1153;104513;-72
2021/01/12 05:31:05;;;;;;;28.07;11.50;;;;;;;-3.20;66.91;98689.86;120060;1153;104362;-72
2021/01/12 05:33:33;;;;;;;30.07;12.60;;;;;;;-3.21;66.49;98683.79;120006;1153;104492;-71
2021/01/12 05:36:05;;;;;;;26.60;10.80;;;;;;;-3.19;67.68;98679.41;119936;1152;104459;-69
2021/01/12 05:38:36;;;;;;;26.90;11.40;;;;;;;-3.15;66.54;98673.25;119873;1153;104444;-70
2021/01/12 05:41:05;;;;;;;30.55;13.25;;;;;;;-3.14;66.58;98672.36;120323;1153;104364;-71
2021/01/12 05:43:45;;;;;;;28.83;12.57;;;;;;;-3.12;67.59;98664.53;119979;1153;104352;-70
2021/01/12 05:46:18;;;;;;;32.57;12.97;;;;;;;-3.12;66.69;98653.25;120029;1153;104470;-70
2021/01/12 05:48:46;;;;;;;29.10;12.95;;;;;;;-3.10;66.84;98654.07;119905;1153;104398;-71
2021/01/12 05:51:16;;;;;;;29.23;12.23;;;;;;;-3.10;67.02;98656.67;120016;1153;104423;-69
2021/01/12 05:53:47;;;;;;;31.63;14.13;;;;;;;-3.10;66.76;98654.95;119986;1153;104423;-69
2021/01/12 05:56:27;;;;;;;30.77;13.27;;;;;;;-3.14;66.86;98654.14;120117;1152;104351;-71
2021/01/12 05:58:59;;;;;;;31.57;14.67;;;;;;;-3.17;66.94;98653.38;119976;1153;104588;-71
2021/01/12 06:01:40;;;;;;;30.73;13.87;;;;;;;-3.22;67.30;98647.42;120207;1151;104426;-68
2021/01/12 06:04:12;;;;;;;32.93;13.87;;;;;;;-3.25;67.62;98660.49;121943;1151;103279;-69
2021/01/12 06:06:46;;;;;;;31.50;13.60;;;;;;;-3.31;67.35;98653.70;121961;1151;103221;-70
2021/01/12 06:09:18;;;;;;;32.50;13.33;;;;;;;-3.32;67.35;98646.78;120185;1153;104460;-70
2021/01/12 06:11:52;;;;;;;32.27;14.00;;;;;;;-3.32;66.72;98649.39;120101;1153;104403;-69
2021/01/12 06:14:27;;;;;;;32.50;14.97;;;;;;;-3.32;67.20;98649.39;120059;1151;104349;-70
2021/01/12 06:17:01;;;;;;;33.23;14.60;;;;;;;-3.32;67.18;98642.42;120056;1151;104228;-68
2021/01/12 06:19:34;;;;;;;33.00;13.80;;;;;;;-3.33;67.21;98635.51;120028;1151;104499;-71
2021/01/12 06:22:08;;;;;;;35.70;15.67;;;;;;;-3.36;66.93;98627.78;120067;1151;104476;-69
2021/01/12 06:24:35;;;;;;;37.60;14.70;;;;;;;-3.35;67.60;98633.84;120082;1152;104524;-70
2021/01/12 06:27:32;;;;;;;32.70;14.30;;;;;;;-3.33;67.23;98632.07;120036;1153;104455;-70
2021/01/12 06:30:07;;;;;;;32.03;13.63;;;;;;;-3.33;67.12;98630.31;120124;1153;104468;-71
2021/01/12 06:32:37;;;;;;;27.27;11.80;;;;;;;-3.31;67.35;98632.89;120092;1152;104442;-73
2021/01/12 06:35:09;;;;;;;32.60;14.40;;;;;;;-3.31;66.93;98628.53;120078;1154;104474;-75
2021/01/12 06:37:47;;;;;;;36.37;14.40;;;;;;;-3.27;67.50;98628.45;120103;1153;104936;-70
2021/01/12 06:40:20;;;;;;;32.50;14.87;;;;;;;-3.25;66.97;98632.72;120009;1153;104445;-71
2021/01/12 06:42:50;;;;;;;32.90;15.50;;;;;;;-3.24;67.11;98628.39;120099;1153;104351;-72
2021/01/12 06:45:17;;;;;;;36.27;16.67;;;;;;;-3.24;67.37;98631.83;120121;1154;104377;-70
2021/01/12 06:47:49;;;;;;;39.08;18.07;;;;;;;-3.21;67.96;98628.31;120050;1153;104347;-69
2021/01/12 06:50:18;;;;;;;33.77;16.40;;;;;;;-3.18;67.51;98625.65;120053;1151;104555;-70
2021/01/12 06:52:51;;;;;;;36.10;16.90;;;;;;;-3.19;67.67;98622.17;119991;1151;104426;-70
2021/01/12 06:55:21;;;;;;;33.60;14.67;;;;;;;-3.16;67.02;98619.50;120024;1151;104393;-71
2021/01/12 06:57:58;;;;;;;33.60;14.13;;;;;;;-3.17;67.43;98617.79;119991;1154;104438;-70
2021/01/12 07:00:34;;;;;;;32.30;13.93;;;;;;;-3.17;67.53;98602.18;120053;1154;104380;-70
2021/01/12 07:03:04;;;;;;;30.93;13.47;;;;;;;-3.14;67.80;98601.27;120039;1153;104458;-71
2021/01/12 07:05:42;;;;;;;31.90;13.77;;;;;;;-3.09;67.06;98598.54;120073;1153;104375;-71
2021/01/12 07:08:26;;;;;;;31.77;13.80;;;;;;;-3.07;67.21;98595.03;120098;1153;104348;-70
2021/01/12 07:11:03;;;;;;;29.03;13.73;;;;;;;-3.04;68.05;98605.33;120007;1153;104423;-71
2021/01/12 07:13:42;;;;;;;30.07;13.27;;;;;;;-3.03;67.21;98600.99;120039;1152;104317;-71
2021/01/12 07:16:16;;;;;;;34.90;15.90;;;;;;;-3.02;67.47;98597.50;120080;1154;104493;-68
2021/01/12 07:18:57;;;;;;;35.40;15.80;;;;;;;-2.97;67.63;98592.17;120072;1153;104442;-71
2021/01/12 07:21:30;;;;;;;35.53;15.97;;;;;;;-2.93;67.89;98591.20;120041;1153;104459;-71
2021/01/12 07:24:03;;;;;;;32.17;14.90;;;;;;;-2.90;67.14;98578.11;120061;1151;104430;-70
2021/01/12 07:26:34;;;;;;;32.17;13.77;;;;;;;-2.89;68.20;98578.09;120070;1151;104356;-69
2021/01/12 07:29:09;;;;;;;30.13;14.70;;;;;;;-2.86;68.19;98572.80;120016;1152;104477;-70
2021/01/12 07:31:36;;;;;;;36.60;16.67;;;;;;;-2.81;67.26;98569.20;120017;1151;104428;-70
2021/01/12 07:34:15;;;;;;;34.93;16.30;;;;;;;-2.77;67.37;98568.23;120056;1151;104449;-69
2021/01/12 07:36:48;;;;;;;32.23;14.23;;;;;;;-2.71;67.60;98557.66;120078;1152;104453;-70
2021/01/12 07:39:15;;;;;;;35.23;15.07;;;;;;;-2.63;68.40;98560.91;120054;1153;104364;-70
2021/01/12 07:41:48;;;;;;;35.73;17.30;;;;;;;-2.57;67.25;98560.75;120052;1153;104394;-68
2021/01/12 07:44:19;;;;;;;31.40;15.27;;;;;;;-2.50;67.68;98552.77;120005;1152;104525;-71
2021/01/12 07:46:53;;;;;;;33.67;16.13;;;;;;;-2.45;68.67;98556.10;120035;1151;104917;-70
2021/01/12 07:49:24;;;;;;;34.70;16.30;;;;;;;-2.39;68.41;98550.70;120039;1152;104376;-70
2021/01/12 07:51:54;;;;;;;39.53;18.70;;;;;;;-2.34;68.71;98550.58;120065;1151;104851;-69
2021/01/12 07:54:26;;;;;;;34.97;15.50;;;;;;;-2.32;68.34;98536.60;120059;1151;104818;-69
2021/01/12 07:56:59;;;;;;;34.93;14.77;;;;;;;-2.27;68.47;98542.54;120006;1151;104503;-71
2021/01/12 07:59:26;;;;;;;33.50;15.95;;;;;;;-2.19;68.57;98544.07;120102;1151;104866;-71
2021/01/12 08:01:56;;;;;;;31.75;15.40;;;;;;;-2.14;67.86;98542.19;120077;1151;104377;-71
2021/01/12 08:04:24;;;;;;;31.95;14.00;;;;;;;-2.05;68.64;98534.11;120057;1153;104460;-71
2021/01/12 08:06:54;;;;;;;31.77;14.30;;;;;;;-1.97;68.68;98534.70;120079;1151;104532;-70
2021/01/12 08:09:28;;;;;;;34.97;15.83;;;;;;;-1.89;68.77;98524.06;120101;1151;104500;-72
2021/01/12 08:12:06;;;;;;;29.20;13.17;;;;;;;-1.80;67.64;98522.92;120140;1151;104477;-71
2021/01/12 08:14:34;;;;;;;31.70;14.33;;;;;;;-1.72;67.62;98520.93;120033;1151;104423;-71
2021/01/12 08:17:05;;;;;;;30.40;14.47;;;;;;;-1.65;68.78;98521.58;120060;1153;104426;-71
2021/01/12 08:19:39;;;;;;;31.07;14.23;;;;;;;-1.58;68.67;98515.27;120050;1151;104509;-69
2021/01/12 08:22:10;;;;;;;28.13;12.40;;;;;;;-1.50;68.42;98515.88;120080;1151;104459;-70
2021/01/12 08:24:37;;;;;;;30.73;13.37;;;;;;;-1.44;68.90;98514.81;120028;1152;104357;-69
2021/01/12 08:27:09;;;;;;;30.43;13.67;;;;;;;-1.38;68.68;98511.14;119997;1153;104443;-70
2021/01/12 08:29:39;;;;;;;30.23;13.27;;;;;;;-1.31;67.70;98510.05;120017;1154;104865;-71
2021/01/12 08:32:09;;;;;;;28.83;13.93;;;;;;;-1.26;68.91;98513.36;120036;1153;104448;-70
2021/01/12 08:35:02;;;;;;;29.33;12.47;;;;;;;-1.19;68.47;98508.77;119994;1152;104428;-71
2021/01/12 08:37:43;;;;;;;31.23;13.47;;;;;;;-1.11;69.01;98490.27;120019;1153;104516;-69
2021/01/12 08:40:15;;;;;;;31.07;13.20;;;;;;;-1.03;68.46;98500.42;120041;1152;104464;-71
2021/01/12 08:42:46;;;;;;;27.03;12.57;;;;;;;-0.96;68.32;98500.16;120052;1151;104377;-70
2021/01/12 08:45:16;;;;;;;31.60;14.30;;;;;;;-0.87;68.65;98493.78;120043;1153;104515;-71
2021/01/12 08:47:46;;;;;;;29.10;13.40;;;;;;;-0.78;68.03;98489.98;119987;1153;104459;-71
2021/01/12 08:50:29;;;;;;;26.13;11.00;;;;;;;-0.69;68.96;98494.88;119998;1151;104889;-70
2021/01/12 08:53:02;;;;;;;25.90;11.17;;;;;;;-0.58;68.18;98488.39;120052;1151;104449;-71
2021/01/12 08:55:29;;;;;;;30.63;13.20;;;;;;;-0.47;68.15;98500.17;120097;1151;104352;-71
2021/01/12 08:58:04;;;;;;;26.70;12.47;;;;;;;-0.29;68.20;98483.86;120056;1151;104517;-71
2021/01/12 09:00:38;;;;;;;27.23;13.10;;;;;;;-0.09;68.06;98481.33;119981;1152;104336;-71
2021/01/12 09:03:12;;;;;;;30.67;13.10;;;;;;;0.10;68.52;98484.07;120009;1153;105215;-71
2021/01/12 09:05:43;;;;;;;26.90;11.55;;;;;;;0.36;67.72;98470.87;120038;1152;104457;-71
2021/01/12 09:08:22;;;;;;;30.10;13.13;;;;;;;0.84;67.76;98484.59;120076;1152;104380;-70
2021/01/12 09:10:49;;;;;;;25.97;11.97;;;;;;;0.96;68.30;98460.50;120104;1153;104490;-70
2021/01/12 09:13:24;;;;;;;29.57;12.10;;;;;;;1.10;68.26;98446.80;120042;1152;104388;-70
2021/01/12 09:15:52;;;;;;;28.70;12.87;;;;;;;1.33;68.07;98447.56;120057;1152;104429;-69
2021/01/12 09:18:29;;;;;;;32.90;12.50;;;;;;;1.58;68.22;98444.69;120035;1152;104399;-72
2021/01/12 09:21:08;;;;;;;28.10;13.20;;;;;;;2.12;68.42;98445.70;120067;1153;104462;-70
2021/01/12 09:23:38;;;;;;;27.87;12.40;;;;;;;2.67;68.01;98450.00;120086;1151;104456;-71
2021/01/12 09:26:05;;;;;;;25.17;11.23;;;;;;;3.10;68.00;98445.17;120007;1151;104380;-69
2021/01/12 09:28:37;;;;;;;26.57;11.07;;;;;;;3.50;67.94;98446.63;120065;1151;104481;-71
2021/01/12 09:31:11;;;;;;;25.48;11.25;;;;;;;3.79;67.46;98438.92;120004;1149;105014;-70
2021/01/12 09:33:46;;;;;;;28.62;11.93;;;;;;;4.02;66.72;98433.25;120042;1152;104353;-73
2021/01/12 09:36:18;;;;;;;26.57;12.03;;;;;;;4.06;66.95;98433.08;120045;1152;104426;-71
2021/01/12 09:38:50;;;;;;;25.43;12.00;;;;;;;3.97;67.11;98437.92;119976;1153;104453;-71
2021/01/12 09:41:26;;;;;;;24.72;12.05;;;;;;;3.91;67.12;98425.09;119978;1152;104451;-72
2021/01/12 09:43:56;;;;;;;28.20;13.27;;;;;;;3.84;67.18;98414.08;120020;1153;104465;-72
2021/01/12 09:46:24;;;;;;;26.80;12.27;;;;;;;3.84;67.64;98415.84;119948;1151;104429;-71
2021/01/12 09:48:51;;;;;;;27.83;12.83;;;;;;;3.82;67.29;98407.19;119955;1151;104529;-72
2021/01/12 09:51:18;;;;;;;21.97;9.63;;;;;;;3.85;67.48;98391.23;120050;1151;104426;-71
2021/01/12 09:53:49;;;;;;;23.13;11.50;;;;;;;3.92;67.26;98397.85;119801;1151;104846;-71
2021/01/12 09:56:17;;;;;;;25.87;11.57;;;;;;;3.74;66.93;98394.47;120491;1151;104383;-71
2021/01/12 09:58:45;;;;;;;26.43;12.50;;;;;;;3.47;66.95;98386.31;119958;1151;104355;-72
2021/01/12 10:01:17;;;;;;;28.73;13.27;;;;;;;3.43;66.73;98388.27;120025;1153;104385;-70
2021/01/12 10:03:51;;;;;;;28.77;11.77;;;;;;;3.52;66.73;98374.59;119978;1153;104366;-72
2021/01/12 10:06:22;;;;;;;26.80;12.37;;;;;;;3.49;66.38;98380.02;120077;1153;104535;-72
2021/01/12 10:08:50;;;;;;;23.33;10.87;;;;;;;3.41;67.16;98377.82;120020;1153;104544;-73
2021/01/12 10:11:17;;;;;;;28.97;13.37;;;;;;;3.33;67.05;98374.76;120133;1151;104871;-68
2021/01/12 10:13:48;;;;;;;25.57;12.17;;;;;;;3.34;67.02;98372.99;120101;1151;104556;-71
2021/01/12 10:16:25;;;;;;;27.67;12.30;;;;;;;3.46;66.33;98369.70;120053;1152;104364;-72
2021/01/12 10:18:55;;;;;;;29.67;12.67;;;;;;;3.54;66.64;98375.36;120063;1152;104357;-72
2021/01/12 10:21:22;;;;;;;27.23;11.23;;;;;;;3.62;66.98;98363.58;120006;1151;104383;-70
2021/01/12 10:23:49;;;;;;;26.20;12.20;;;;;;;3.55;66.22;98350.77;120065;1151;104425;-70
2021/01/12 10:26:20;;;;;;;25.53;10.70;;;;;;;3.48;66.03;98332.80;120101;1151;104505;-72
2021/01/12 10:28:48;;;;;;;26.87;13.17;;;;;;;3.31;66.04;98342.45;120020;1151;104914;-73
2021/01/12 10:31:18;;;;;;;26.33;12.47;;;;;;;3.21;65.98;98347.36;120051;1151;104526;-74
2021/01/12 10:33:52;;;;;;;26.33;11.93;;;;;;;3.15;65.34;98331.92;120042;1154;104383;-74
2021/01/12 10:36:23;;;;;;;26.50;11.60;;;;;;;3.05;65.84;98343.88;120035;1151;104493;-72
2021/01/12 10:38:50;;;;;;;24.23;10.83;;;;;;;3.01;65.64;98347.60;120073;1151;104375;-72
2021/01/12 10:41:19;;;;;;;26.50;11.17;;;;;;;2.95;65.23;98348.75;120027;1151;104453;-72
2021/01/12 10:43:50;;;;;;;24.27;11.48;;;;;;;2.89;65.13;98341.20;120098;1151;104460;-73
2021/01/12 10:46:18;;;;;;;25.15;11.70;;;;;;;2.98;65.61;98332.83;120033;1151;104462;-72
2021/01/12 10:48:50;;;;;;;24.00;11.43;;;;;;;3.11;65.21;98333.88;119997;1151;104416;-71
2021/01/12 10:51:20;;;;;;;27.30;11.30;;;;;;;3.20;65.21;98316.75;120048;1151;104780;-72
2021/01/12 10:53:47;;;;;;;25.13;11.03;;;;;;;3.33;65.77;98313.46;120020;1154;104378;-72
2021/01/12 10:56:18;;;;;;;22.60;10.13;;;;;;;3.28;64.41;98319.81;120131;1151;104354;-72
2021/01/12 10:58:45;;;;;;;25.03;11.10;;;;;;;3.18;65.11;98299.39;120055;1151;104812;-71
2021/01/12 11:01:20;;;;;;;25.30;11.10;;;;;;;3.10;64.95;98295.39;120114;1151;104453;-73
2021/01/12 11:03:47;;;;;;;24.20;11.17;;;;;;;3.24;65.16;98284.12;120002;1151;104478;-74
2021/01/12 11:06:18;;;;;;;20.77;8.10;;;;;;;3.40;64.96;98284.11;119981;1151;104425;-72
2021/01/12 11:08:49;;;;;;;29.17;11.87;;;;;;;3.40;64.97;98276.22;120070;1151;104396;-73
2021/01/12 11:11:21;;;;;;;25.00;10.63;;;;;;;3.51;64.76;98277.41;119986;1151;104484;-71
2021/01/12 11:13:51;;;;;;;;;;;;;;;3.43;63.62;98275.22;119945;1153;104503;-72
2021/01/12 11:16:18;;;;;;;24.63;10.57;;;;;;;3.33;64.41;98259.09;119814;1153;104447;-71
2021/01/12 11:18:46;;;;;;;25.63;9.90;;;;;;;3.27;63.93;98254.17;120096;1151;104348;-72